Rechercher aéroport 
image banner adimage banner ad
image banner ad

SSEP - São Sepé Airport

Situé à São Sepé, Brazil

ICAO - SSEP, IATA -

Données fournies par Airmate  

Information générale

Coordonnées: S30°10'56" W53°34'46"
Élévation : 501 feet MSL.
Variation magnétique : -15° East
Voir autres Aéroports à Rio Grande do Sul

Données opérationnelles

Accessible au public
Heure actuelle UTC:
Heure actuelle locale:
Météo à : SBSM - Santa Maria Airport ( 53 km )
METAR: SBSM 211600Z 10015KT 9999 BKN040 28/21 Q1017
TAF: TAF SBSM 210900Z 2112/2124 10010KT 9999 SCT015 TN22/2112Z TX29/2118Z BECMG 2114/21156 10014KT BKN027 TEMPO 2118/2121 8000 SHRA BKN030 FEW045TCU BECMG 2121/2123 09010KT FEW035 RMK PEJ
Voir NOTAMs / SUP AIP / TFR affectant cet aéroport [VIEW]
Fréquences de communication: [VIEW]

Pistes:

Coordonnées de l'aéroport

Adresse: São Sepé Brazil

Vue satellite de SSEP